createdAt,value
2022-09-06T00:00:16.386Z,3.85
2022-09-06T00:03:01.160Z,4.07
2022-09-06T00:08:27.634Z,4.47
2022-09-06T00:11:11.133Z,4.47
2022-09-06T00:13:54.196Z,4.10
2022-09-06T00:16:37.151Z,4.07
2022-09-06T00:19:21.486Z,4.13
2022-09-06T00:22:04.528Z,4.30
2022-09-06T00:24:47.555Z,4.70
2022-09-06T00:27:31.099Z,5.10
2022-09-06T00:30:14.345Z,3.85
2022-09-06T00:32:57.899Z,4.20
2022-09-06T00:35:42.287Z,3.58
2022-09-06T00:38:25.335Z,3.83
2022-09-06T00:41:10.583Z,3.70
2022-09-06T00:43:53.610Z,4.25
2022-09-06T00:46:38.441Z,3.70
2022-09-06T00:49:25.334Z,3.53
2022-09-06T00:52:13.687Z,3.60
2022-09-06T00:54:57.453Z,3.70
2022-09-06T00:57:40.829Z,3.33
2022-09-06T01:00:23.912Z,3.67
2022-09-06T01:03:08.209Z,3.30
2022-09-06T01:06:01.544Z,3.38
2022-09-06T01:09:00.192Z,3.28
2022-09-06T01:11:59.267Z,3.10
2022-09-06T01:14:57.782Z,3.10
2022-09-06T01:17:52.866Z,3.08
2022-09-06T01:20:51.469Z,3.30
2022-09-06T01:23:59.545Z,2.92
2022-09-06T01:27:20.631Z,2.85
2022-09-06T01:30:07.573Z,2.90
2022-09-06T01:32:57.795Z,2.83
2022-09-06T01:35:45.418Z,3.30
2022-09-06T01:38:28.957Z,3.00
2022-09-06T01:41:12.409Z,3.60
2022-09-06T01:43:56.527Z,2.55
2022-09-06T01:46:48.735Z,2.78
2022-09-06T01:49:50.670Z,2.90
2022-09-06T01:52:40.510Z,3.10
2022-09-06T01:55:31.533Z,2.83
2022-09-06T01:58:29.647Z,2.92
2022-09-06T02:01:22.802Z,3.00
2022-09-06T02:04:15.037Z,2.83
2022-09-06T02:07:01.995Z,2.90
2022-09-06T02:09:49.660Z,2.83
2022-09-06T02:12:35.679Z,3.15
2022-09-06T02:15:23.509Z,2.78
2022-09-06T02:18:12.275Z,2.83
2022-09-06T02:20:59.784Z,2.70
2022-09-06T02:23:45.376Z,2.50
2022-09-06T02:26:31.603Z,2.88
2022-09-06T02:29:15.226Z,3.13
2022-09-06T02:32:02.604Z,3.33
2022-09-06T02:34:46.608Z,3.50
2022-09-06T02:37:30.955Z,3.37
2022-09-06T02:40:14.284Z,3.05
2022-09-06T02:42:57.323Z,3.10
2022-09-06T02:45:40.791Z,2.92
2022-09-06T02:48:24.130Z,3.50
2022-09-06T02:51:09.834Z,3.28
2022-09-06T02:53:54.445Z,3.63
2022-09-06T02:56:37.635Z,3.40
2022-09-06T02:59:20.782Z,3.33
2022-09-06T03:02:03.870Z,3.90
2022-09-06T03:04:46.945Z,3.40
2022-09-06T03:07:29.898Z,2.92
2022-09-06T03:10:14.511Z,3.40
2022-09-06T03:12:58.580Z,3.10
2022-09-06T03:15:41.642Z,3.40
2022-09-06T03:18:25.268Z,3.22
2022-09-06T03:21:08.404Z,3.17
2022-09-06T03:23:51.487Z,3.55
2022-09-06T03:26:35.950Z,3.40
2022-09-06T03:29:19.001Z,3.63
2022-09-06T03:32:02.378Z,2.85
2022-09-06T03:34:45.463Z,3.17
2022-09-06T03:37:28.779Z,2.85
2022-09-06T03:40:12.898Z,3.38
2022-09-06T03:42:57.293Z,3.25
2022-09-06T03:45:40.663Z,2.90
2022-09-06T03:48:25.601Z,3.08
2022-09-06T03:51:08.847Z,3.10
2022-09-06T03:53:51.912Z,3.33
2022-09-06T03:56:35.056Z,3.20
2022-09-06T03:59:19.479Z,3.22
2022-09-06T04:02:03.215Z,2.90
2022-09-06T04:04:46.341Z,2.72
2022-09-06T04:07:29.373Z,3.08
2022-09-06T04:10:12.482Z,3.50
2022-09-06T04:12:55.643Z,3.35
2022-09-06T04:15:40.509Z,3.47
2022-09-06T04:18:23.920Z,3.33
2022-09-06T04:21:07.508Z,3.38
2022-09-06T04:23:50.751Z,2.95
2022-09-06T04:26:33.918Z,3.33
2022-09-06T04:29:16.944Z,3.42
2022-09-06T04:32:01.412Z,3.13
2022-09-06T04:34:44.470Z,3.20
2022-09-06T04:37:27.541Z,3.40
2022-09-06T04:40:11.424Z,3.00
2022-09-06T04:42:54.522Z,3.27
2022-09-06T04:45:37.670Z,3.28
2022-09-06T04:48:22.148Z,2.92
2022-09-06T04:51:05.737Z,2.80
2022-09-06T04:53:49.519Z,2.80
2022-09-06T04:56:32.526Z,2.70
2022-09-06T04:59:15.620Z,2.95
2022-09-06T05:01:58.684Z,3.08
2022-09-06T05:04:43.165Z,3.03
2022-09-06T05:07:26.298Z,2.95
2022-09-06T05:14:56.278Z,2.90
2022-09-06T05:17:39.349Z,3.03
2022-09-06T05:20:23.693Z,2.65
2022-09-06T05:23:06.693Z,2.80
2022-09-06T05:25:50.275Z,2.95
2022-09-06T05:28:33.357Z,2.80
2022-09-06T05:31:27.049Z,2.90
2022-09-06T05:34:10.547Z,3.03
2022-09-06T05:36:54.948Z,2.92
2022-09-06T05:39:38.070Z,2.80
2022-09-06T05:42:21.279Z,2.28
2022-09-06T05:45:06.606Z,2.03
2022-09-06T05:47:49.615Z,2.53
2022-09-06T05:50:32.615Z,2.92
2022-09-06T05:53:16.919Z,3.08
2022-09-06T05:56:00.000Z,2.78
2022-09-06T05:58:43.030Z,2.75
2022-09-06T06:01:28.645Z,2.83
2022-09-06T06:04:11.703Z,3.17
2022-09-06T06:06:54.639Z,2.80
2022-09-06T06:09:39.060Z,3.03
2022-09-06T06:12:22.069Z,2.63
2022-09-06T06:15:06.449Z,2.50
2022-09-06T06:17:49.519Z,2.47
2022-09-06T06:20:32.591Z,2.55
2022-09-06T06:23:15.769Z,2.60
2022-09-06T06:26:00.150Z,2.58
2022-09-06T06:28:43.287Z,2.65
2022-09-06T06:31:26.288Z,2.30
2022-09-06T06:34:09.609Z,2.42
2022-09-06T06:36:52.873Z,2.70
2022-09-06T06:39:35.912Z,2.70
2022-09-06T06:42:20.327Z,2.58
2022-09-06T06:45:09.286Z,2.85
2022-09-06T06:47:52.244Z,2.90
2022-09-06T06:50:35.215Z,3.05
2022-09-06T06:53:19.469Z,3.47
2022-09-06T06:56:02.814Z,3.10
2022-09-06T06:58:48.881Z,3.13
2022-09-06T07:01:33.652Z,2.75
2022-09-06T07:04:16.688Z,2.95
2022-09-06T07:13:06.748Z,2.83
2022-09-06T07:15:51.519Z,2.85
2022-09-06T07:18:34.513Z,3.00
2022-09-06T07:24:22.226Z,2.90
2022-09-06T07:30:09.787Z,2.65
2022-09-06T07:32:54.128Z,2.72
2022-09-06T07:35:37.085Z,2.65
2022-09-06T07:38:19.966Z,2.40
2022-09-06T07:41:05.530Z,2.70
2022-09-06T07:43:48.415Z,2.60
2022-09-06T07:46:31.467Z,2.60
2022-09-06T07:49:15.895Z,2.80
2022-09-06T07:51:59.005Z,2.70
2022-09-06T07:54:42.066Z,2.78
2022-09-06T07:57:25.093Z,2.53
2022-09-06T08:00:10.236Z,2.20
2022-09-06T08:02:54.700Z,2.50
2022-09-06T08:08:58.241Z,2.80
2022-09-06T08:11:42.179Z,2.83
2022-09-06T08:14:25.438Z,2.50
2022-09-06T08:17:08.363Z,2.63
2022-09-06T08:19:51.313Z,2.60
2022-09-06T08:22:35.663Z,2.50
2022-09-06T08:25:18.707Z,2.50
2022-09-06T08:28:01.734Z,2.63
2022-09-06T08:30:44.695Z,2.63
2022-09-06T08:33:28.303Z,2.33
2022-09-06T08:36:12.491Z,2.28
2022-09-06T08:38:57.120Z,2.65
2022-09-06T08:41:48.485Z,2.70
2022-09-06T08:47:38.310Z,2.20
2022-09-06T08:50:21.955Z,2.40
2022-09-06T08:53:17.303Z,2.20
2022-09-06T08:56:13.268Z,2.20
2022-09-06T08:59:06.532Z,2.45
2022-09-06T09:01:59.744Z,2.50
2022-09-06T09:04:48.103Z,2.22
2022-09-06T09:07:39.921Z,2.30
2022-09-06T09:10:27.805Z,1.80
2022-09-06T09:13:21.671Z,1.90
2022-09-06T09:16:06.001Z,2.10
2022-09-06T09:18:52.967Z,2.70
2022-09-06T09:21:40.079Z,2.58
2022-09-06T09:24:24.318Z,2.55
2022-09-06T09:27:11.242Z,2.40
2022-09-06T09:33:22.599Z,2.40
2022-09-06T09:36:10.803Z,2.10
2022-09-06T09:38:57.020Z,2.55
2022-09-06T09:41:43.725Z,2.70
2022-09-06T09:44:29.950Z,2.30
2022-09-06T09:47:27.887Z,2.33
2022-09-06T09:50:25.392Z,1.90
2022-09-06T09:53:11.123Z,2.10
2022-09-06T09:55:59.073Z,2.00
2022-09-06T09:58:42.154Z,2.10
2022-09-06T10:01:28.627Z,1.90
2022-09-06T10:07:25.087Z,2.08
2022-09-06T10:10:13.810Z,2.33
2022-09-06T10:13:09.175Z,2.20
2022-09-06T10:15:54.135Z,2.15
2022-09-06T10:18:40.171Z,2.17
2022-09-06T10:21:28.299Z,2.33
2022-09-06T10:24:27.912Z,1.85
2022-09-06T10:27:11.323Z,1.60
2022-09-06T10:30:01.565Z,1.90
2022-09-06T10:32:50.185Z,1.90
2022-09-06T10:35:37.969Z,1.88
2022-09-06T10:38:33.547Z,1.73
2022-09-06T10:41:33.188Z,1.45
2022-09-06T10:44:31.190Z,1.48
2022-09-06T10:47:16.126Z,1.60
2022-09-06T10:50:02.249Z,1.40
2022-09-06T10:52:48.182Z,1.40
2022-09-06T10:55:32.959Z,1.40
2022-09-06T10:58:23.520Z,1.70
2022-09-06T11:01:08.905Z,1.40
2022-09-06T11:06:46.006Z,1.10
2022-09-06T11:09:34.712Z,1.40
2022-09-06T11:12:31.283Z,1.20
2022-09-06T11:15:16.273Z,1.20
2022-09-06T11:18:07.266Z,1.10
2022-09-06T11:21:04.935Z,1.40
2022-09-06T11:23:51.570Z,1.30
2022-09-06T11:26:43.791Z,1.40
2022-09-06T11:29:36.466Z,1.38
2022-09-06T11:32:34.087Z,1.10
2022-09-06T11:35:25.820Z,1.00
2022-09-06T11:38:21.594Z,1.00
2022-09-06T11:41:14.547Z,0.93
2022-09-06T11:43:57.893Z,1.00
2022-09-06T11:47:01.788Z,1.20
2022-09-06T11:49:44.807Z,1.30
2022-09-06T11:52:59.244Z,1.20
2022-09-06T11:55:45.122Z,1.20
2022-09-06T11:58:32.635Z,1.50
2022-09-06T12:01:37.453Z,1.20
2022-09-06T12:04:21.960Z,1.20
2022-09-06T12:09:53.172Z,1.17
2022-09-06T12:12:45.230Z,1.60
2022-09-06T12:15:30.242Z,1.30
2022-09-06T12:18:52.819Z,1.40
2022-09-06T12:21:47.600Z,1.15
2022-09-06T12:27:34.356Z,1.17
2022-09-06T12:30:33.351Z,1.30
2022-09-06T12:33:24.888Z,1.30
2022-09-06T12:36:15.423Z,1.58
2022-09-06T12:39:01.960Z,1.30
2022-09-06T12:41:48.262Z,1.45
2022-09-06T12:44:34.542Z,1.40
2022-09-06T12:47:24.189Z,1.35
2022-09-06T12:50:09.135Z,1.60
2022-09-06T12:52:53.870Z,1.35
2022-09-06T12:55:39.498Z,1.20
2022-09-06T12:58:29.426Z,1.13
2022-09-06T13:01:22.985Z,1.30
2022-09-06T13:04:10.883Z,1.15
2022-09-06T13:06:54.363Z,1.30
2022-09-06T13:09:40.560Z,1.15
2022-09-06T13:12:27.511Z,1.05
2022-09-06T13:15:15.775Z,1.02
2022-09-06T13:18:20.823Z,1.20
2022-09-06T13:21:05.940Z,1.48
2022-09-06T13:23:51.003Z,1.08
2022-09-06T13:26:36.499Z,1.20
2022-09-06T13:29:31.323Z,0.95
2022-09-06T13:32:15.496Z,1.05
2022-09-06T13:34:59.985Z,1.05
2022-09-06T13:37:43.907Z,1.17
2022-09-06T13:41:10.108Z,1.05
2022-09-06T13:43:48.044Z,1.20
2022-09-06T13:49:16.351Z,1.20
2022-09-06T13:52:02.045Z,1.20
2022-09-06T13:54:45.596Z,1.30
2022-09-06T13:57:28.470Z,1.27
2022-09-06T14:00:12.935Z,1.30
2022-09-06T14:02:58.019Z,1.05
2022-09-06T14:05:40.963Z,1.27
2022-09-06T14:08:24.217Z,1.50
2022-09-06T14:11:07.355Z,1.10
2022-09-06T14:13:50.402Z,1.30
2022-09-06T14:16:34.419Z,1.20
2022-09-06T14:19:18.723Z,1.20
2022-09-06T14:24:45.159Z,1.23
2022-09-06T14:27:28.159Z,0.90
2022-09-06T14:30:12.494Z,1.60
2022-09-06T14:32:55.474Z,1.30
2022-09-06T14:35:40.563Z,1.50
2022-09-06T14:38:23.507Z,1.30
2022-09-06T14:41:08.021Z,1.25
2022-09-06T14:46:35.145Z,1.05
2022-09-06T14:49:18.481Z,1.15
2022-09-06T14:52:03.166Z,1.40
2022-09-06T14:54:46.177Z,1.30
2022-09-06T14:57:30.081Z,1.55
2022-09-06T15:00:14.481Z,1.45
2022-09-06T15:02:57.437Z,1.30
2022-09-06T15:05:40.444Z,1.42
2022-09-06T15:08:24.764Z,1.33
2022-09-06T15:11:09.020Z,1.38
2022-09-06T15:13:52.718Z,1.58
2022-09-06T15:16:36.484Z,1.33
2022-09-06T15:19:20.563Z,1.73
2022-09-06T15:22:04.542Z,1.50
2022-09-06T15:24:50.344Z,1.50
2022-09-06T15:27:33.386Z,1.20
2022-09-06T15:30:16.409Z,1.33
2022-09-06T15:33:00.373Z,1.27
2022-09-06T15:35:43.991Z,1.30
2022-09-06T15:38:27.578Z,1.57
2022-09-06T15:41:13.755Z,1.45
2022-09-06T15:43:58.327Z,1.40
2022-09-06T15:49:28.558Z,1.25
2022-09-06T15:52:12.337Z,1.50
2022-09-06T15:55:12.937Z,1.50
2022-09-06T15:57:57.313Z,1.40
2022-09-06T16:00:40.328Z,1.40
2022-09-06T16:03:23.336Z,1.25
2022-09-06T16:09:09.114Z,1.30
2022-09-06T16:11:52.170Z,1.52
2022-09-06T16:14:36.462Z,1.50
2022-09-06T16:17:20.090Z,1.60
2022-09-06T16:20:04.745Z,1.40
2022-09-06T16:22:49.808Z,1.60
2022-09-06T16:25:32.772Z,1.40
2022-09-06T16:28:16.073Z,1.60
2022-09-06T16:31:03.457Z,1.40
2022-09-06T16:33:48.693Z,1.63
2022-09-06T16:36:31.751Z,1.80
2022-09-06T16:39:14.930Z,1.60
2022-09-06T16:41:57.892Z,1.83
2022-09-06T16:44:40.884Z,1.65
2022-09-06T16:47:25.136Z,1.58
2022-09-06T16:50:08.715Z,1.80
2022-09-06T16:52:51.893Z,1.40
2022-09-06T16:55:38.094Z,1.85
2022-09-06T16:58:21.064Z,1.98
2022-09-06T17:01:04.192Z,1.50
2022-09-06T17:03:48.769Z,1.60
2022-09-06T17:06:33.070Z,1.83
2022-09-06T17:09:18.771Z,1.50
2022-09-06T17:12:01.723Z,1.65
2022-09-06T17:14:44.754Z,1.65
2022-09-06T17:17:27.718Z,1.52
2022-09-06T17:20:12.847Z,1.85
2022-09-06T17:22:55.803Z,2.05
2022-09-06T17:25:43.307Z,3.20
2022-09-06T17:28:26.409Z,4.75
2022-09-06T17:31:10.427Z,3.72
2022-09-06T17:33:53.903Z,3.60
2022-09-06T17:36:38.239Z,3.10
2022-09-06T17:39:22.306Z,3.65
2022-09-06T17:42:05.777Z,4.68
2022-09-06T17:44:48.694Z,4.65
2022-09-06T17:47:31.928Z,4.63
2022-09-06T17:50:15.338Z,4.53
2022-09-06T17:52:59.719Z,4.00
2022-09-06T17:55:44.327Z,3.30
2022-09-06T18:01:12.391Z,2.80
2022-09-06T18:03:55.368Z,3.30
2022-09-06T18:06:41.222Z,2.90
2022-09-06T18:09:25.543Z,2.92
2022-09-06T18:12:09.289Z,2.60
2022-09-06T18:14:52.851Z,2.55
2022-09-06T18:17:35.782Z,2.67
2022-09-06T18:20:18.856Z,2.55
2022-09-06T18:23:01.802Z,2.55
2022-09-06T18:25:56.825Z,2.20
2022-09-06T18:28:40.060Z,2.20
2022-09-06T18:31:25.507Z,2.28
2022-09-06T18:34:09.251Z,2.63
2022-09-06T18:36:52.430Z,2.35
2022-09-06T18:39:35.387Z,2.50
2022-09-06T18:42:19.773Z,3.20
2022-09-06T18:45:02.747Z,3.30
2022-09-06T18:47:45.765Z,3.20
2022-09-06T18:50:28.785Z,3.15
2022-09-06T18:53:11.856Z,3.40
2022-09-06T18:55:54.791Z,3.08
2022-09-06T18:58:39.968Z,3.22
2022-09-06T19:01:23.076Z,3.30
2022-09-06T19:04:07.681Z,3.58
2022-09-06T19:06:50.768Z,3.20
2022-09-06T19:09:33.979Z,3.15
2022-09-06T19:12:16.880Z,3.60
2022-09-06T19:15:01.214Z,3.30
2022-09-06T19:17:44.375Z,3.35
2022-09-06T19:20:27.370Z,3.70
2022-09-06T19:23:10.270Z,3.38
2022-09-06T19:25:57.975Z,3.50
2022-09-06T19:28:41.397Z,3.83
2022-09-06T19:31:27.116Z,2.90
2022-09-06T19:34:10.271Z,3.00
2022-09-06T19:36:55.291Z,2.95
2022-09-06T19:39:38.555Z,3.03
2022-09-06T19:42:21.785Z,3.45
2022-09-06T19:45:06.003Z,2.90
2022-09-06T19:47:50.357Z,3.05
2022-09-06T19:50:34.269Z,2.75
2022-09-06T19:53:17.214Z,2.67
2022-09-06T19:56:00.167Z,3.17
2022-09-06T19:58:44.077Z,2.97
2022-09-06T20:01:29.417Z,2.80
2022-09-06T20:04:14.934Z,2.25
2022-09-06T20:06:58.028Z,2.80
2022-09-06T20:09:41.232Z,2.90
2022-09-06T20:12:24.359Z,2.40
2022-09-06T20:15:08.248Z,2.60
2022-09-06T20:17:51.716Z,2.63
2022-09-06T20:20:36.119Z,2.60
2022-09-06T20:23:19.073Z,2.60
2022-09-06T20:26:05.193Z,2.85
2022-09-06T20:28:48.886Z,2.50
2022-09-06T20:31:33.198Z,2.88
2022-09-06T20:34:19.283Z,2.70
2022-09-06T20:37:03.598Z,2.72
2022-09-06T20:39:46.720Z,2.90
2022-09-06T20:42:29.754Z,2.60
2022-09-06T20:45:13.069Z,2.45
2022-09-06T20:47:57.707Z,2.67
2022-09-06T20:53:25.088Z,2.60
2022-09-06T20:56:10.895Z,2.58
2022-09-06T20:58:56.022Z,2.45
2022-09-06T21:01:42.410Z,2.63
2022-09-06T21:04:26.543Z,2.42
2022-09-06T21:07:09.990Z,2.30
2022-09-06T21:09:54.299Z,2.60
2022-09-06T21:12:37.238Z,2.30
2022-09-06T21:15:20.271Z,2.40
2022-09-06T21:18:03.427Z,2.28
2022-09-06T21:20:54.091Z,2.40
2022-09-06T21:23:38.575Z,2.10
2022-09-06T21:26:23.501Z,2.45
2022-09-06T21:29:06.558Z,2.40
2022-09-06T21:31:50.679Z,2.53
2022-09-06T21:34:33.665Z,2.60
2022-09-06T21:37:16.767Z,2.50
2022-09-06T21:39:59.835Z,2.47
2022-09-06T21:42:44.240Z,2.22
2022-09-06T21:45:27.357Z,2.35
2022-09-06T21:48:10.389Z,2.60
2022-09-06T21:50:53.490Z,3.00
2022-09-06T21:53:37.366Z,2.80
2022-09-06T21:56:20.649Z,2.70
2022-09-06T21:59:06.703Z,2.60
2022-09-06T22:01:49.809Z,2.83
2022-09-06T22:04:32.874Z,2.70
2022-09-06T22:07:15.834Z,2.78
2022-09-06T22:09:58.779Z,3.47
2022-09-06T22:12:42.710Z,3.10
2022-09-06T22:15:27.067Z,2.63
2022-09-06T22:18:10.774Z,3.05
2022-09-06T22:21:00.856Z,2.95
2022-09-06T22:23:43.812Z,3.20
2022-09-06T22:26:28.393Z,2.67
2022-09-06T22:29:13.533Z,3.20
2022-09-06T22:31:58.109Z,2.88
2022-09-06T22:34:41.682Z,3.38
2022-09-06T22:37:24.670Z,3.33
2022-09-06T22:40:08.793Z,3.35
2022-09-06T22:42:51.981Z,3.60
2022-09-06T22:45:34.915Z,3.30
2022-09-06T22:48:19.265Z,3.20
2022-09-06T22:51:03.642Z,3.90
2022-09-06T22:53:46.713Z,3.35
2022-09-06T22:56:29.832Z,3.47
2022-09-06T22:59:12.772Z,3.25
2022-09-06T23:01:56.081Z,3.42
2022-09-06T23:04:40.464Z,3.50
2022-09-06T23:07:23.492Z,3.35
2022-09-06T23:10:07.470Z,3.75
2022-09-06T23:12:52.717Z,3.38
2022-09-06T23:15:35.967Z,3.35
2022-09-06T23:18:19.309Z,3.60
2022-09-06T23:21:08.048Z,3.40
2022-09-06T23:23:53.186Z,3.38
2022-09-06T23:26:36.733Z,3.42
2022-09-06T23:29:19.973Z,3.22
2022-09-06T23:32:03.226Z,3.20
2022-09-06T23:34:46.263Z,3.80
2022-09-06T23:37:30.576Z,3.35
2022-09-06T23:40:15.017Z,3.10
2022-09-06T23:42:58.032Z,3.60
2022-09-06T23:45:41.010Z,3.58
2022-09-06T23:48:24.207Z,4.00
2022-09-06T23:51:07.275Z,3.38
2022-09-06T23:53:51.919Z,3.55
2022-09-06T23:56:35.213Z,3.50
2022-09-06T23:59:18.118Z,3.50
